Time;durP1;ratioP1;P1;durP2;ratioP2;P2;SDS_P1;SDS_P2;PMS_P1;PMS_P2;Temp;Humidity;BMP_temperature;BMP_pressure;BME280_temperature;BME280_humidity;BME280_pressure;Samples;Min_cycle;Max_cycle;Signal;HPM_P1;HPM_P2
2023/01/23 00:01:32;;;;;;;64.60;29.17;;;1.30;73.30;;;;;;4617506;30;114643;-81
2023/01/23 00:03:59;;;;;;;70.35;32.33;;;1.30;73.40;;;;;;4617767;30;114267;-81
2023/01/23 00:06:27;;;;;;;70.18;32.83;;;1.30;73.60;;;;;;4615274;30;115156;-80
2023/01/23 00:08:55;;;;;;;81.70;36.13;;;1.30;73.70;;;;;;4616459;30;114816;-82
2023/01/23 00:11:25;;;;;;;61.33;29.40;;;1.40;73.60;;;;;;4616697;30;114521;-82
2023/01/23 00:13:52;;;;;;;62.35;28.75;;;1.40;73.50;;;;;;4630376;30;120558;-82
2023/01/23 00:16:23;;;;;;;61.70;29.92;;;1.40;73.50;;;;;;4616980;30;116275;-82
2023/01/23 00:18:50;;;;;;;61.90;27.10;;;1.30;73.40;;;;;;4616666;30;114680;-81
2023/01/23 00:21:20;;;;;;;55.08;26.98;;;1.30;73.30;;;;;;4630348;30;114473;-81
2023/01/23 00:23:50;;;;;;;59.33;27.77;;;1.20;73.50;;;;;;4617647;30;114624;-81
2023/01/23 00:26:28;;;;;;;67.32;30.00;;;1.20;73.70;;;;;;4615401;30;115177;-81
2023/01/23 00:28:55;;;;;;;58.30;26.83;;;1.20;73.80;;;;;;4643599;30;114710;-82
2023/01/23 00:31:29;;;;;;;57.42;26.75;;;1.20;73.70;;;;;;4629792;30;114641;-81
2023/01/23 00:34:05;;;;;;;59.50;26.75;;;1.10;73.70;;;;;;4627481;30;114415;-81
2023/01/23 00:36:35;;;;;;;52.25;23.40;;;1.10;73.60;;;;;;4645932;30;115182;-81
2023/01/23 00:39:05;;;;;;;53.53;25.52;;;0.90;73.70;;;;;;4632391;30;115319;-82
2023/01/23 00:41:33;;;;;;;51.35;25.33;;;1.00;73.90;;;;;;4634611;30;114427;-82
2023/01/23 00:44:00;;;;;;;61.63;27.80;;;0.90;73.90;;;;;;4633476;30;114457;-82
2023/01/23 00:46:27;;;;;;;55.85;26.92;;;1.00;74.00;;;;;;4646723;30;115262;-82
2023/01/23 00:48:56;;;;;;;59.50;28.50;;;1.00;74.00;;;;;;4646592;30;114689;-82
2023/01/23 00:51:24;;;;;;;54.45;25.52;;;0.90;74.00;;;;;;4633536;30;114640;-82
2023/01/23 00:53:52;;;;;;;58.70;26.42;;;1.00;74.10;;;;;;4633687;30;114844;-82
2023/01/23 00:56:19;;;;;;;55.28;26.75;;;1.00;74.10;;;;;;4618068;30;115307;-82
2023/01/23 00:58:46;;;;;;;58.45;26.75;;;1.00;74.10;;;;;;4635048;30;117078;-82
2023/01/23 01:01:14;;;;;;;57.15;28.17;;;1.00;74.10;;;;;;4650566;30;116208;-81
2023/01/23 01:03:42;;;;;;;56.20;25.60;;;1.00;74.00;;;;;;4650863;30;114586;-82
2023/01/23 01:06:09;;;;;;;57.60;27.60;;;0.90;74.00;;;;;;4649790;30;115184;-82
2023/01/23 01:08:36;;;;;;;48.88;24.23;;;1.00;74.10;;;;;;4636634;30;114661;-82
2023/01/23 01:11:04;;;;;;;61.33;26.80;;;0.90;73.90;;;;;;4636514;30;114401;-82
2023/01/23 01:13:31;;;;;;;63.45;28.23;;;0.70;74.10;;;;;;4650313;30;114421;-82
2023/01/23 01:16:00;;;;;;;62.65;27.77;;;0.80;74.30;;;;;;4635569;30;115610;-82
2023/01/23 01:18:28;;;;;;;54.95;26.95;;;0.80;74.40;;;;;;4649843;30;116054;-82
2023/01/23 01:20:56;;;;;;;57.83;24.85;;;0.80;74.30;;;;;;4621726;30;114473;-82
2023/01/23 01:23:23;;;;;;;55.20;24.90;;;0.80;74.30;;;;;;4622088;30;114561;-82
2023/01/23 01:25:50;;;;;;;54.33;24.98;;;0.80;74.30;;;;;;4634863;30;115231;-82
2023/01/23 01:28:17;;;;;;;59.25;27.88;;;0.80;74.40;;;;;;4649322;30;115444;-82
2023/01/23 01:30:47;;;;;;;56.60;24.48;;;0.80;74.30;;;;;;4635067;30;114552;-83
2023/01/23 01:33:14;;;;;;;58.65;25.95;;;0.80;74.40;;;;;;4643319;30;114435;-81
2023/01/23 01:35:41;;;;;;;55.53;25.00;;;0.70;74.40;;;;;;4651651;30;118578;-82
2023/01/23 01:38:08;;;;;;;60.45;27.35;;;0.80;74.50;;;;;;4651960;30;116047;-82
2023/01/23 01:40:43;;;;;;;50.67;23.33;;;0.70;74.60;;;;;;4638533;30;114655;-82
2023/01/23 01:43:19;;;;;;;62.67;27.85;;;0.80;74.60;;;;;;4656842;30;114699;-82
2023/01/23 01:46:10;;;;;;;58.15;26.63;;;0.80;74.70;;;;;;4637302;30;118379;-81
2023/01/23 01:49:04;;;;;;;59.55;26.50;;;0.80;74.80;;;;;;4651693;30;114673;-81
2023/01/23 01:51:49;;;;;;;59.50;27.92;;;0.80;74.70;;;;;;4638262;30;114541;-81
2023/01/23 01:54:39;;;;;;;62.85;27.63;;;0.80;74.70;;;;;;4652446;30;114567;-81
2023/01/23 01:57:31;;;;;;;58.30;25.95;;;0.80;74.70;;;;;;4637523;30;115829;-82
2023/01/23 02:00:06;;;;;;;60.03;25.60;;;0.70;74.80;;;;;;4637094;30;114843;-82
2023/01/23 02:02:52;;;;;;;61.47;25.40;;;0.70;74.70;;;;;;4651559;30;114755;-82
2023/01/23 02:05:31;;;;;;;63.05;25.58;;;0.70;74.70;;;;;;4637797;30;118620;-81
2023/01/23 02:08:09;;;;;;;70.50;27.55;;;0.60;74.90;;;;;;4622368;30;116385;-82
2023/01/23 02:10:39;;;;;;;60.58;24.48;;;0.60;74.90;;;;;;4622635;30;114794;-82
2023/01/23 02:13:35;;;;;;;64.88;27.02;;;0.50;74.90;;;;;;4635729;30;119837;-81
2023/01/23 02:16:12;;;;;;;61.58;27.17;;;0.50;75.20;;;;;;4651847;30;114656;-82
2023/01/23 02:18:46;;;;;;;57.28;24.15;;;0.40;75.20;;;;;;4637013;30;115635;-82
2023/01/23 02:21:16;;;;;;;57.10;23.58;;;0.50;75.30;;;;;;4608756;30;117437;-82
2023/01/23 02:23:55;;;;;;;58.00;23.20;;;0.50;75.40;;;;;;4638010;30;114803;-82
2023/01/23 02:26:42;;;;;;;69.07;27.38;;;0.60;75.40;;;;;;4652070;30;115416;-81
2023/01/23 02:29:11;;;;;;;43.78;20.25;;;0.60;75.50;;;;;;4608258;30;117785;-81
2023/01/23 02:31:45;;;;;;;;;;;0.60;75.30;;;;;;4652452;30;115203;-82
2023/01/23 02:34:13;;;;;;;57.30;23.67;;;0.50;75.20;;;;;;4666006;30;115510;-81
2023/01/23 02:36:44;;;;;;;41.42;19.02;;;0.50;75.40;;;;;;4638144;30;114481;-82
2023/01/23 02:39:16;;;;;;;36.00;16.40;;;0.60;75.50;;;;;;4636102;30;116299;-82
2023/01/23 02:41:51;;;;;;;37.42;16.17;;;0.50;75.40;;;;;;4620154;30;115495;-81
2023/01/23 02:44:26;;;;;;;33.72;16.08;;;0.50;75.40;;;;;;4651746;30;114535;-80
2023/01/23 02:47:06;;;;;;;32.60;14.25;;;0.50;75.50;;;;;;4664855;30;114722;-81
2023/01/23 02:49:34;;;;;;;36.40;14.88;;;0.50;75.30;;;;;;4621048;30;117249;-82
2023/01/23 02:52:04;;;;;;;30.60;14.27;;;0.40;75.30;;;;;;4635954;30;115014;-81
2023/01/23 02:54:34;;;;;;;30.08;13.77;;;0.40;75.30;;;;;;4636506;30;118034;-81
2023/01/23 02:57:01;;;;;;;28.63;13.02;;;0.40;75.30;;;;;;4622716;30;114416;-81
2023/01/23 03:02:16;;;;;;;32.60;14.95;;;0.30;75.60;;;;;;4649789;30;115116;-81
2023/01/23 03:04:43;;;;;;;26.90;13.32;;;0.30;75.70;;;;;;4636169;30;117074;-81
2023/01/23 03:07:10;;;;;;;27.55;14.23;;;0.40;75.80;;;;;;4621954;30;114661;-82
2023/01/23 03:09:38;;;;;;;21.73;10.77;;;0.40;75.70;;;;;;4649716;30;115838;-82
2023/01/23 03:12:07;;;;;;;20.83;9.85;;;0.40;75.50;;;;;;4635440;30;117973;-81
2023/01/23 03:14:35;;;;;;;24.55;11.15;;;0.30;75.50;;;;;;4651217;30;114661;-80
2023/01/23 03:17:02;;;;;;;23.73;11.10;;;0.30;75.50;;;;;;4636926;30;114639;-80
2023/01/23 03:19:33;;;;;;;22.88;12.50;;;0.20;75.60;;;;;;4636273;30;115202;-80
2023/01/23 03:22:00;;;;;;;23.48;12.00;;;0.20;75.70;;;;;;4636267;30;114835;-81
2023/01/23 03:24:27;;;;;;;26.77;12.63;;;0.20;75.80;;;;;;4651548;30;114538;-81
2023/01/23 03:26:55;;;;;;;23.42;11.25;;;0.30;76.00;;;;;;4650413;30;114903;-81
2023/01/23 03:32:14;;;;;;;25.48;11.98;;;0.40;76.00;;;;;;4622017;30;117731;-81
2023/01/23 03:34:42;;;;;;;21.65;10.38;;;0.50;75.80;;;;;;4648288;30;114455;-80
2023/01/23 03:37:10;;;;;;;18.25;9.77;;;0.40;75.50;;;;;;4634862;30;114600;-80
2023/01/23 03:42:25;;;;;;;27.52;12.48;;;0.30;75.60;;;;;;4648174;30;114649;-80
2023/01/23 03:44:55;;;;;;;24.63;13.30;;;0.30;75.80;;;;;;4648794;30;114369;-79
2023/01/23 03:47:25;;;;;;;27.77;13.27;;;0.40;75.90;;;;;;4649000;30;114526;-80
2023/01/23 03:49:54;;;;;;;22.83;11.50;;;0.50;76.00;;;;;;4647876;30;115206;-80
2023/01/23 03:52:21;;;;;;;23.38;10.68;;;0.50;75.80;;;;;;4647821;30;114969;-80
2023/01/23 03:54:49;;;;;;;20.55;10.27;;;0.50;75.80;;;;;;4634706;30;114608;-80
2023/01/23 03:57:17;;;;;;;21.27;10.65;;;0.50;75.70;;;;;;4634121;30;117825;-80
2023/01/23 03:59:47;;;;;;;23.52;12.10;;;0.50;75.70;;;;;;4634290;30;115048;-80
2023/01/23 04:02:18;;;;;;;22.00;12.30;;;0.50;75.80;;;;;;4633422;30;115247;-80
2023/01/23 04:04:45;;;;;;;21.98;11.35;;;0.50;75.80;;;;;;4634310;30;114587;-81
2023/01/23 04:07:13;;;;;;;21.70;12.57;;;0.50;75.70;;;;;;4646645;30;115711;-80
2023/01/23 04:09:42;;;;;;;18.67;10.32;;;0.40;75.70;;;;;;4647708;30;115060;-81
2023/01/23 04:12:10;;;;;;;22.27;12.48;;;0.50;75.80;;;;;;4633709;30;116329;-80
2023/01/23 04:14:41;;;;;;;25.23;12.85;;;0.50;75.70;;;;;;4648237;30;114477;-81
2023/01/23 04:17:10;;;;;;;21.42;11.23;;;0.40;75.60;;;;;;4648277;30;114521;-81
2023/01/23 04:19:37;;;;;;;23.50;10.88;;;0.30;75.60;;;;;;4646878;30;115205;-81
2023/01/23 04:22:04;;;;;;;21.88;10.13;;;0.30;75.60;;;;;;4633217;30;114673;-80
2023/01/23 04:24:38;;;;;;;23.85;12.00;;;0.20;75.80;;;;;;4648099;30;114430;-80
2023/01/23 04:27:05;;;;;;;23.80;11.80;;;0.20;75.80;;;;;;4633318;30;114739;-80
2023/01/23 04:29:34;;;;;;;23.02;12.55;;;0.20;75.90;;;;;;4632373;30;115038;-81
2023/01/23 04:32:01;;;;;;;20.88;11.63;;;0.30;76.00;;;;;;4631656;30;114716;-80
2023/01/23 04:34:30;;;;;;;22.30;12.32;;;0.30;76.10;;;;;;4619019;30;114570;-80
2023/01/23 04:36:58;;;;;;;23.83;13.15;;;0.30;76.10;;;;;;4633360;30;114480;-80
2023/01/23 04:39:25;;;;;;;21.73;12.77;;;0.40;76.10;;;;;;4646762;30;115165;-81
2023/01/23 04:41:52;;;;;;;23.15;13.43;;;0.40;76.10;;;;;;4646884;30;114707;-80
2023/01/23 04:44:42;;;;;;;24.10;12.38;;;0.40;76.10;;;;;;4632645;30;114510;-81
2023/01/23 04:47:18;;;;;;;24.77;12.38;;;0.40;76.20;;;;;;4634298;30;114395;-81
2023/01/23 04:49:47;;;;;;;23.02;12.55;;;0.50;76.20;;;;;;4632320;30;115046;-81
2023/01/23 04:52:14;;;;;;;25.10;13.07;;;0.50;76.30;;;;;;4632271;30;115228;-81
2023/01/23 04:54:50;;;;;;;24.45;13.60;;;0.60;76.30;;;;;;4647415;30;115676;-82
2023/01/23 04:57:18;;;;;;;24.92;13.65;;;0.60;76.20;;;;;;4632916;30;114553;-81
2023/01/23 04:59:46;;;;;;;28.20;14.63;;;0.70;76.20;;;;;;4632232;30;115064;-81
2023/01/23 05:02:13;;;;;;;25.92;13.07;;;0.70;76.00;;;;;;4632450;30;114869;-81
2023/01/23 05:04:42;;;;;;;23.90;12.80;;;0.70;76.00;;;;;;4618930;30;114628;-80
2023/01/23 05:07:11;;;;;;;28.25;15.02;;;0.70;75.80;;;;;;4619129;30;114448;-80
2023/01/23 05:09:43;;;;;;;22.90;12.65;;;0.60;75.80;;;;;;4618504;30;115433;-81
2023/01/23 05:12:13;;;;;;;23.45;13.07;;;0.60;75.80;;;;;;4646584;30;115076;-80
2023/01/23 05:14:41;;;;;;;28.58;15.20;;;0.60;75.90;;;;;;4655349;30;114698;-80
2023/01/23 05:17:08;;;;;;;30.52;16.98;;;0.50;76.00;;;;;;4645705;30;114412;-81
2023/01/23 05:19:41;;;;;;;30.65;15.60;;;0.50;76.10;;;;;;4628827;30;116318;-81
2023/01/23 05:22:14;;;;;;;33.40;16.42;;;0.50;76.10;;;;;;4644465;30;114939;-81
2023/01/23 05:24:41;;;;;;;28.35;14.45;;;0.60;76.20;;;;;;4650764;30;114631;-81
2023/01/23 05:27:09;;;;;;;30.23;15.15;;;0.60;76.20;;;;;;4633148;30;114558;-81
2023/01/23 05:29:39;;;;;;;30.10;15.93;;;0.60;76.00;;;;;;4632053;30;115344;-81
2023/01/23 05:32:14;;;;;;;30.38;14.93;;;0.60;76.10;;;;;;4631850;30;114822;-81
2023/01/23 05:34:41;;;;;;;25.45;13.23;;;0.50;76.10;;;;;;4647095;30;114505;-80
2023/01/23 05:37:16;;;;;;;24.95;12.80;;;0.50;76.10;;;;;;4647245;30;114553;-81
2023/01/23 05:39:48;;;;;;;21.52;11.88;;;0.40;76.10;;;;;;4646007;30;115165;-81
2023/01/23 05:42:15;;;;;;;22.95;11.93;;;0.40;76.20;;;;;;4631689;30;114801;-81
2023/01/23 05:44:57;;;;;;;24.02;12.32;;;0.40;76.30;;;;;;4651139;30;114368;-80
2023/01/23 05:47:36;;;;;;;21.48;11.45;;;0.40;76.30;;;;;;4636373;30;118216;-81
2023/01/23 05:50:07;;;;;;;21.02;10.65;;;0.30;76.20;;;;;;4631231;30;118791;-81
2023/01/23 05:52:36;;;;;;;24.15;12.02;;;0.40;76.20;;;;;;4650810;30;117449;-81
2023/01/23 05:55:10;;;;;;;22.23;11.53;;;0.40;76.30;;;;;;4649144;30;114742;-80
2023/01/23 05:57:40;;;;;;;21.50;10.88;;;0.30;76.40;;;;;;4649961;30;114965;-81
2023/01/23 06:00:27;;;;;;;23.75;11.43;;;0.40;76.50;;;;;;4657890;30;115278;-81
2023/01/23 06:03:26;;;;;;;24.17;12.15;;;0.40;76.50;;;;;;4634476;30;117405;-81
2023/01/23 06:06:06;;;;;;;26.00;13.45;;;0.40;76.60;;;;;;4648079;30;114643;-81
2023/01/23 06:08:34;;;;;;;28.48;13.90;;;0.40;76.60;;;;;;4659573;30;114473;-82
2023/01/23 06:11:03;;;;;;;23.70;13.52;;;0.50;76.60;;;;;;4657816;30;115581;-81
2023/01/23 06:13:30;;;;;;;23.30;13.38;;;0.40;76.60;;;;;;4643459;30;114725;-81
2023/01/23 06:15:57;;;;;;;29.83;13.82;;;0.40;76.50;;;;;;4645341;30;114521;-82
2023/01/23 06:18:27;;;;;;;24.75;12.50;;;0.50;76.60;;;;;;4644854;30;114794;-81
2023/01/23 06:20:59;;;;;;;25.42;12.82;;;0.50;76.70;;;;;;4641656;30;116611;-83
2023/01/23 06:23:27;;;;;;;21.25;10.85;;;0.50;76.70;;;;;;4656512;30;114784;-80
2023/01/23 06:26:01;;;;;;;22.85;13.05;;;0.50;76.60;;;;;;4657572;30;119782;-81
2023/01/23 06:28:33;;;;;;;24.45;12.95;;;0.60;76.60;;;;;;4630564;30;114614;-81
2023/01/23 06:31:02;;;;;;;27.15;14.30;;;0.60;76.50;;;;;;4660127;30;115088;-80
2023/01/23 06:33:42;;;;;;;26.17;14.13;;;0.60;76.60;;;;;;4627318;30;115848;-81
2023/01/23 06:36:23;;;;;;;27.27;14.57;;;0.50;76.60;;;;;;4658281;30;114676;-82
2023/01/23 06:38:51;;;;;;;35.55;16.45;;;0.60;76.70;;;;;;4658599;30;114607;-81
2023/01/23 06:41:23;;;;;;;29.90;15.98;;;0.50;76.70;;;;;;4656999;30;115184;-83
2023/01/23 06:43:53;;;;;;;35.47;16.55;;;0.50;76.80;;;;;;4631627;30;114783;-82
2023/01/23 06:46:23;;;;;;;30.73;16.48;;;0.50;76.90;;;;;;4657528;30;114505;-81
2023/01/23 06:48:53;;;;;;;36.00;18.65;;;0.60;76.90;;;;;;4657785;30;114527;-82
2023/01/23 06:51:23;;;;;;;38.15;18.27;;;0.60;76.90;;;;;;4650753;30;116903;-82
2023/01/23 06:53:51;;;;;;;34.05;17.77;;;0.60;76.80;;;;;;4657072;30;123726;-82
2023/01/23 06:56:18;;;;;;;34.08;18.83;;;0.60;76.80;;;;;;4643507;30;114460;-82
2023/01/23 06:58:47;;;;;;;38.65;19.50;;;0.60;76.90;;;;;;4652231;30;114460;-81
2023/01/23 07:01:25;;;;;;;37.22;20.17;;;0.60;76.90;;;;;;4647666;30;115460;-82
2023/01/23 07:04:11;;;;;;;34.72;18.27;;;0.70;77.00;;;;;;4634718;30;114694;-81
2023/01/23 07:06:39;;;;;;;38.70;19.35;;;0.70;77.00;;;;;;4634710;30;114864;-82
2023/01/23 07:09:07;;;;;;;36.38;19.67;;;0.70;77.00;;;;;;4635463;30;114876;-82
2023/01/23 07:11:36;;;;;;;40.95;21.88;;;0.80;76.90;;;;;;4647550;30;115433;-82
2023/01/23 07:14:05;;;;;;;39.58;19.33;;;0.70;76.80;;;;;;4622376;30;116281;-82
2023/01/23 07:16:34;;;;;;;40.53;22.02;;;0.70;76.90;;;;;;4647831;30;114731;-82
2023/01/23 07:19:04;;;;;;;40.28;20.60;;;0.70;76.90;;;;;;4648004;30;114846;-82
2023/01/23 07:21:33;;;;;;;35.85;18.17;;;0.70;77.00;;;;;;4618492;30;118292;-82
2023/01/23 07:24:00;;;;;;;42.53;21.20;;;0.70;76.90;;;;;;4647982;30;115015;-82
2023/01/23 07:26:27;;;;;;;43.40;20.83;;;0.70;77.00;;;;;;4638634;30;114475;-82
2023/01/23 07:28:55;;;;;;;41.20;20.67;;;0.70;77.10;;;;;;4634244;30;115821;-82
2023/01/23 07:31:22;;;;;;;35.45;18.27;;;0.70;77.10;;;;;;4633798;30;115076;-83
2023/01/23 07:33:50;;;;;;;37.40;19.27;;;0.70;77.10;;;;;;4619128;30;114678;-82
2023/01/23 07:36:33;;;;;;;40.90;20.88;;;0.70;77.00;;;;;;4620006;30;114510;-82
2023/01/23 07:39:01;;;;;;;46.37;21.57;;;0.70;77.20;;;;;;4640015;30;114554;-80
2023/01/23 07:41:28;;;;;;;40.90;19.40;;;0.70;77.10;;;;;;4629194;30;116207;-82
2023/01/23 07:43:55;;;;;;;40.10;19.13;;;0.60;77.10;;;;;;4618977;30;117315;-83
2023/01/23 07:46:24;;;;;;;44.90;20.40;;;0.60;77.20;;;;;;4619434;30;114563;-81
2023/01/23 07:48:52;;;;;;;40.60;19.30;;;0.60;77.20;;;;;;4638391;30;114546;-81
2023/01/23 07:51:19;;;;;;;42.80;19.25;;;0.60;77.30;;;;;;4635892;30;115144;-82
2023/01/23 07:53:46;;;;;;;42.53;20.50;;;0.60;77.30;;;;;;4632548;30;117418;-82
2023/01/23 07:56:13;;;;;;;39.78;20.33;;;0.60;77.40;;;;;;4634937;30;114622;-82
2023/01/23 07:58:41;;;;;;;39.67;18.60;;;0.60;77.40;;;;;;4637915;30;114852;-81
2023/01/23 08:01:09;;;;;;;36.05;18.20;;;0.60;77.40;;;;;;4640481;30;117024;-82
2023/01/23 08:03:37;;;;;;;40.33;19.80;;;0.60;77.40;;;;;;4632951;30;115730;-82
2023/01/23 08:06:07;;;;;;;34.28;18.02;;;0.60;77.50;;;;;;4647758;30;114441;-81
2023/01/23 08:08:34;;;;;;;42.55;22.33;;;0.70;77.50;;;;;;4633625;30;114550;-81
2023/01/23 08:11:04;;;;;;;42.05;21.20;;;0.80;77.60;;;;;;4631745;30;115203;-82
2023/01/23 08:13:31;;;;;;;36.72;19.65;;;0.90;77.50;;;;;;4632180;30;114811;-81
2023/01/23 08:15:59;;;;;;;33.85;17.00;;;0.90;77.20;;;;;;4634211;30;114424;-81
2023/01/23 08:18:27;;;;;;;37.55;19.60;;;1.00;77.30;;;;;;4633979;30;114849;-82
2023/01/23 08:20:55;;;;;;;36.15;19.20;;;0.90;77.10;;;;;;4646358;30;116519;-82
2023/01/23 08:23:31;;;;;;;39.53;21.60;;;1.00;77.30;;;;;;4646244;30;114656;-82
2023/01/23 08:26:01;;;;;;;35.80;20.45;;;1.00;77.20;;;;;;4646188;30;114402;-82
2023/01/23 08:28:29;;;;;;;37.38;19.05;;;1.10;77.20;;;;;;4633669;30;114470;-82
2023/01/23 08:31:04;;;;;;;43.05;21.15;;;1.10;77.00;;;;;;4632144;30;116707;-82
2023/01/23 08:33:34;;;;;;;40.92;22.08;;;1.10;77.00;;;;;;4644414;30;115274;-82
2023/01/23 08:36:01;;;;;;;46.33;21.58;;;1.10;77.10;;;;;;4631162;30;114936;-82
2023/01/23 08:38:29;;;;;;;41.80;21.45;;;1.10;77.20;;;;;;4645362;30;114835;-82
2023/01/23 08:40:59;;;;;;;38.33;20.63;;;1.20;77.00;;;;;;4631127;30;119354;-82
2023/01/23 08:43:26;;;;;;;40.40;20.75;;;1.10;77.00;;;;;;4644123;30;114771;-82
2023/01/23 08:45:55;;;;;;;43.30;21.55;;;1.10;77.00;;;;;;4631088;30;115522;-82
2023/01/23 08:48:24;;;;;;;45.92;24.85;;;1.20;77.10;;;;;;4645010;30;114558;-82
2023/01/23 08:50:51;;;;;;;45.38;22.77;;;1.20;77.10;;;;;;4644074;30;115653;-83
2023/01/23 08:53:21;;;;;;;40.78;21.02;;;1.20;76.90;;;;;;4629843;30;115186;-81
2023/01/23 08:55:48;;;;;;;35.83;18.50;;;1.10;76.80;;;;;;4644641;30;114444;-82
2023/01/23 08:58:15;;;;;;;37.53;19.85;;;1.10;76.90;;;;;;4630907;30;114636;-82
2023/01/23 09:00:43;;;;;;;40.65;22.08;;;1.00;77.10;;;;;;4630965;30;115323;-81
2023/01/23 09:03:10;;;;;;;39.65;21.30;;;1.00;77.20;;;;;;4631645;30;114664;-83
2023/01/23 09:05:38;;;;;;;39.42;20.73;;;1.00;77.20;;;;;;4630974;30;114479;-82
2023/01/23 09:08:05;;;;;;;44.00;22.90;;;1.00;77.20;;;;;;4647392;30;114401;-82
2023/01/23 09:10:32;;;;;;;39.95;21.95;;;0.90;77.30;;;;;;4630055;30;116101;-82
2023/01/23 09:13:01;;;;;;;39.22;21.73;;;0.90;77.40;;;;;;4616748;30;116093;-82
2023/01/23 09:15:28;;;;;;;40.95;22.08;;;0.90;77.50;;;;;;4632534;30;114453;-81
2023/01/23 09:17:55;;;;;;;37.00;20.92;;;0.90;77.50;;;;;;4631949;30;114877;-81
2023/01/23 09:20:25;;;;;;;35.10;19.73;;;0.90;77.60;;;;;;4634415;30;115589;-81
2023/01/23 09:22:52;;;;;;;39.53;20.85;;;0.90;77.50;;;;;;4647962;30;114689;-82
2023/01/23 09:25:19;;;;;;;40.85;21.35;;;0.80;77.50;;;;;;4648977;30;116037;-81
2023/01/23 09:27:47;;;;;;;36.03;19.10;;;0.80;77.60;;;;;;4633857;30;118212;-82
2023/01/23 09:30:16;;;;;;;37.17;20.70;;;0.80;77.70;;;;;;4633995;30;115519;-82
2023/01/23 09:32:44;;;;;;;35.97;19.25;;;0.80;77.90;;;;;;4598095;30;1204009;-82
2023/01/23 09:35:11;;;;;;;34.53;19.13;;;0.70;77.90;;;;;;4638048;30;114649;-82
2023/01/23 09:40:36;;;;;;;34.65;18.98;;;0.80;78.00;;;;;;4652183;30;115227;-83
2023/01/23 09:43:31;;;;;;;35.05;20.45;;;0.80;78.20;;;;;;4637636;30;114777;-83
2023/01/23 09:46:09;;;;;;;34.80;19.38;;;0.80;78.20;;;;;;4652721;30;114469;-83
2023/01/23 09:48:47;;;;;;;32.05;18.65;;;0.90;78.20;;;;;;4653463;30;114837;-83
2023/01/23 09:51:40;;;;;;;37.10;20.88;;;0.90;78.30;;;;;;4637056;30;115322;-82
2023/01/23 09:54:56;;;;;;;33.05;17.48;;;1.00;78.20;;;;;;4637816;30;114933;-82
2023/01/23 09:57:34;;;;;;;34.40;18.65;;;0.90;78.10;;;;;;4647086;30;114613;-83
2023/01/23 10:00:24;;;;;;;33.80;17.40;;;0.90;78.10;;;;;;4637433;30;114627;-82
2023/01/23 10:02:55;;;;;;;32.80;18.00;;;0.80;78.20;;;;;;4637495;30;116501;-82
2023/01/23 10:06:12;;;;;;;31.10;18.15;;;0.90;78.20;;;;;;4652321;30;115123;-83
2023/01/23 10:08:56;;;;;;;33.97;18.75;;;0.90;78.40;;;;;;4653060;30;114586;-83
2023/01/23 10:12:14;;;;;;;31.67;17.17;;;0.90;78.40;;;;;;4637562;30;114577;-83
2023/01/23 10:15:19;;;;;;;30.27;16.08;;;0.90;78.30;;;;;;4649230;30;115266;-83
2023/01/23 10:17:56;;;;;;;30.83;16.27;;;0.80;78.40;;;;;;4651091;30;114974;-83
2023/01/23 10:21:15;;;;;;;32.80;16.77;;;0.80;78.40;;;;;;4653132;30;115189;-83
2023/01/23 10:24:11;;;;;;;30.60;18.52;;;0.70;78.50;;;;;;4628391;30;114646;-83
2023/01/23 10:26:42;;;;;;;40.90;20.48;;;0.70;78.70;;;;;;4649984;30;117463;-84
2023/01/23 10:29:33;;;;;;;37.10;19.33;;;0.80;78.70;;;;;;4652125;30;119345;-84
2023/01/23 10:32:01;;;;;;;37.90;19.10;;;0.80;78.70;;;;;;4650372;30;114724;-83
2023/01/23 10:34:54;;;;;;;35.13;20.35;;;0.80;78.70;;;;;;4636630;30;114690;-84
2023/01/23 10:37:36;;;;;;;40.10;21.40;;;0.80;78.70;;;;;;4636234;30;118652;-83
2023/01/23 10:40:11;;;;;;;42.67;20.90;;;0.80;78.80;;;;;;4649044;30;114574;-84
2023/01/23 10:42:39;;;;;;;39.35;19.70;;;0.90;78.70;;;;;;4664537;30;114556;-84
2023/01/23 10:45:12;;;;;;;42.30;21.30;;;0.90;78.70;;;;;;4651332;30;114968;-83
2023/01/23 10:47:46;;;;;;;39.07;20.43;;;1.00;78.70;;;;;;4636166;30;115251;-83
2023/01/23 10:50:38;;;;;;;41.05;21.60;;;1.10;78.60;;;;;;4651338;30;115233;-83
2023/01/23 10:53:07;;;;;;;45.92;21.42;;;1.10;78.50;;;;;;4636551;30;114944;-83
2023/01/23 10:55:34;;;;;;;46.15;22.95;;;1.20;78.50;;;;;;4651179;30;114455;-83
2023/01/23 10:58:02;;;;;;;42.28;21.95;;;1.20;78.50;;;;;;4621930;30;116544;-83
2023/01/23 11:00:39;;;;;;;39.20;21.40;;;1.20;78.30;;;;;;4636261;30;115119;-84
2023/01/23 11:03:27;;;;;;;44.05;22.20;;;1.30;78.10;;;;;;4625237;30;117027;-83
2023/01/23 11:06:01;;;;;;;41.60;21.05;;;1.30;78.10;;;;;;4652268;30;114424;-83
2023/01/23 11:08:35;;;;;;;42.85;20.27;;;1.20;78.00;;;;;;4649365;30;115714;-83
2023/01/23 11:11:14;;;;;;;44.28;23.30;;;1.30;78.10;;;;;;4621451;30;114818;-84
2023/01/23 11:13:44;;;;;;;42.83;22.48;;;1.30;78.00;;;;;;4636029;30;115008;-84
2023/01/23 11:16:21;;;;;;;43.33;21.50;;;1.30;78.00;;;;;;4636874;30;114981;-83
2023/01/23 11:18:56;;;;;;;50.50;23.30;;;1.40;77.80;;;;;;4621020;30;115291;-83
2023/01/23 11:21:27;;;;;;;48.90;24.42;;;1.30;77.80;;;;;;4621455;30;116476;-85
2023/01/23 11:24:20;;;;;;;40.58;22.20;;;1.30;77.90;;;;;;4621810;30;116606;-84
2023/01/23 11:27:15;;;;;;;39.67;21.17;;;1.30;78.00;;;;;;4636748;30;114711;-85
2023/01/23 11:30:07;;;;;;;38.75;21.33;;;1.30;77.90;;;;;;4617061;30;117923;-83
2023/01/23 11:33:06;;;;;;;38.95;19.55;;;1.40;77.90;;;;;;4645819;30;118162;-83
2023/01/23 11:36:02;;;;;;;39.97;21.42;;;1.30;77.80;;;;;;4615360;30;114794;-83
2023/01/23 11:38:42;;;;;;;39.83;21.73;;;1.40;77.90;;;;;;4629442;30;115021;-84
2023/01/23 11:41:28;;;;;;;34.83;19.30;;;1.30;77.90;;;;;;4628366;30;115337;-85
2023/01/23 11:43:56;;;;;;;33.17;17.42;;;1.30;78.00;;;;;;4601138;30;115194;-85
2023/01/23 11:47:08;;;;;;;45.13;21.42;;;1.30;77.90;;;;;;4616527;30;114520;-83
2023/01/23 11:50:06;;;;;;;38.78;19.77;;;1.30;78.00;;;;;;4630349;30;114678;-83
2023/01/23 11:52:53;;;;;;;41.30;22.23;;;1.30;78.00;;;;;;4614607;30;118305;-83
2023/01/23 11:55:44;;;;;;;32.45;18.48;;;1.20;78.00;;;;;;4629751;30;114707;-84
2023/01/23 11:58:30;;;;;;;63.75;28.40;;;1.20;78.20;;;;;;4618661;30;114573;-84
2023/01/23 12:01:46;;;;;;;40.22;21.85;;;1.10;78.20;;;;;;4630017;30;114560;-83
2023/01/23 12:04:57;;;;;;;54.33;25.80;;;1.10;78.30;;;;;;4616509;30;115416;-85
2023/01/23 12:07:26;;;;;;;47.83;24.85;;;1.10;78.40;;;;;;4616449;30;115315;-82
2023/01/23 12:10:13;;;;;;;45.88;23.70;;;1.10;78.40;;;;;;4617865;30;114575;-82
2023/01/23 12:13:05;;;;;;;42.20;22.10;;;1.10;78.60;;;;;;4636395;30;114697;-82
2023/01/23 12:16:16;;;;;;;40.40;21.20;;;1.10;78.60;;;;;;4621626;30;115870;-83
2023/01/23 12:19:12;;;;;;;42.72;22.48;;;1.10;78.60;;;;;;4615228;30;116197;-83
2023/01/23 12:21:58;;;;;;;41.08;22.60;;;1.20;78.50;;;;;;4616049;30;116717;-83
2023/01/23 12:25:05;;;;;;;42.85;22.63;;;1.20;78.50;;;;;;4629358;30;114533;-82
2023/01/23 12:27:35;;;;;;;42.40;21.80;;;1.20;78.50;;;;;;4616657;30;115181;-83
2023/01/23 12:31:00;;;;;;;40.85;20.98;;;1.20;78.50;;;;;;4616081;30;114877;-82
2023/01/23 12:33:39;;;;;;;39.63;22.37;;;1.20;78.50;;;;;;4597111;30;116339;-82
2023/01/23 12:36:28;;;;;;;43.35;22.30;;;1.20;78.60;;;;;;4615052;30;114629;-82
2023/01/23 12:39:28;;;;;;;36.17;19.02;;;1.20;78.60;;;;;;4631243;30;116345;-82
2023/01/23 12:42:02;;;;;;;40.95;21.33;;;1.20;78.60;;;;;;4633101;30;114811;-82
2023/01/23 12:44:34;;;;;;;41.50;20.95;;;1.20;78.70;;;;;;4633458;30;114496;-82
2023/01/23 12:47:09;;;;;;;41.03;19.95;;;1.20;78.80;;;;;;4632743;30;114664;-82
2023/01/23 12:50:04;;;;;;;43.83;22.83;;;1.20;78.80;;;;;;4631134;30;116513;-82
2023/01/23 12:53:00;;;;;;;42.67;20.77;;;1.20;78.80;;;;;;4632126;30;114695;-82
2023/01/23 12:55:38;;;;;;;38.63;18.83;;;1.20;78.90;;;;;;4620914;30;114669;-82
2023/01/23 12:58:05;;;;;;;38.35;20.27;;;1.20;78.90;;;;;;4621930;30;114467;-82
2023/01/23 13:00:44;;;;;;;40.88;20.60;;;1.20;78.90;;;;;;4633999;30;115455;-82
2023/01/23 13:03:26;;;;;;;41.50;22.10;;;1.30;79.00;;;;;;4635774;30;114859;-82
2023/01/23 13:06:57;;;;;;;40.28;19.10;;;1.30;79.00;;;;;;4623918;30;114537;-82
2023/01/23 13:10:02;;;;;;;37.50;17.65;;;1.30;79.00;;;;;;4635506;30;114558;-81
2023/01/23 13:12:30;;;;;;;37.05;18.85;;;1.20;78.90;;;;;;4634078;30;115652;-81
2023/01/23 13:15:15;;;;;;;42.45;20.95;;;1.20;79.00;;;;;;4648910;30;115241;-82
2023/01/23 13:18:00;;;;;;;35.63;17.60;;;1.20;79.20;;;;;;4649896;30;116600;-81